Time;durP1;ratioP1;P1;durP2;ratioP2;P2;SDS_P1;SDS_P2;PMS_P1;PMS_P2;Temp;Humidity;BMP_temperature;BMP_pressure;BME280_temperature;BME280_humidity;BME280_pressure;Samples;Min_cycle;Max_cycle;Signal;HPM_P1;HPM_P2
2022/11/02 00:00:33;;;;;;;;;;;19.20;68.20;;;;;;5050512;28;19916;-70
2022/11/02 00:03:00;;;;;;;;;;;19.60;68.20;;;;;;5035936;28;19919;-73
2022/11/02 00:05:26;;;;;;;;;;;19.80;70.60;;;;;;5035202;28;19959;-75
2022/11/02 00:07:54;;;;;;;;;;;20.10;68.80;;;;;;5035906;28;20400;-73
2022/11/02 00:10:21;;;;;;;;;;;20.40;67.00;;;;;;5035042;28;20344;-70
2022/11/02 00:12:48;;;;;;;;;;;20.80;65.30;;;;;;5052849;28;19944;-76
2022/11/02 00:15:15;;;;;;;;;;;21.10;67.20;;;;;;5054822;28;19955;-75
2022/11/02 00:17:44;;;;;;;;;;;21.50;66.60;;;;;;5054145;28;19912;-71
2022/11/02 00:20:12;;;;;;;;;;;21.80;68.50;;;;;;5054718;28;19913;-75
2022/11/02 00:22:39;;;;;;;;;;;22.10;66.60;;;;;;5038496;28;19915;-75
2022/11/02 00:25:06;;;;;;;;;;;22.40;66.80;;;;;;5044492;28;20314;-76
2022/11/02 00:27:33;;;;;;;;;;;22.60;66.20;;;;;;5039476;28;19925;-76
2022/11/02 00:30:00;;;;;;;;;;;22.50;63.30;;;;;;5053915;28;19913;-74
2022/11/02 00:32:27;;;;;;;;;;;22.20;63.20;;;;;;5056935;28;19920;-73
2022/11/02 00:34:53;;;;;;;;;;;22.10;64.10;;;;;;5054124;28;20146;-74
2022/11/02 00:37:20;;;;;;;;;;;22.00;65.80;;;;;;5051760;28;20394;-76
2022/11/02 00:39:47;;;;;;;;;;;22.00;65.20;;;;;;5053706;28;20015;-73
2022/11/02 00:42:15;;;;;;;;;;;22.20;65.60;;;;;;5041506;28;20343;-75
2022/11/02 00:44:41;;;;;;;;;;;22.00;64.30;;;;;;5036556;28;19910;-74
2022/11/02 00:47:08;;;;;;;;;;;22.30;67.20;;;;;;5053145;28;19924;-70
2022/11/02 00:49:35;;;;;;;;;;;22.50;66.10;;;;;;5053101;28;19913;-73
2022/11/02 00:52:01;;;;;;;;;;;22.70;65.20;;;;;;5053292;28;19913;-69
2022/11/02 00:54:28;;;;;;;;;;;22.80;65.60;;;;;;5054031;28;20011;-74
2022/11/02 00:56:55;;;;;;;;;;;22.90;66.10;;;;;;5053863;28;19920;-73
2022/11/02 00:59:21;;;;;;;;;;;23.10;65.10;;;;;;5054221;28;19940;-76
2022/11/02 01:01:48;;;;;;;;;;;23.30;65.10;;;;;;5053952;28;19913;-77
2022/11/02 01:04:18;;;;;;;;;;;23.40;63.80;;;;;;5053231;28;19912;-74
2022/11/02 01:06:45;;;;;;;;;;;23.10;64.80;;;;;;5052515;28;20422;-75
2022/11/02 01:09:13;;;;;;;;;;;23.30;65.00;;;;;;5053546;28;19916;-75
2022/11/02 01:11:39;;;;;;;;;;;23.20;63.50;;;;;;5053010;28;19975;-73
2022/11/02 01:14:06;;;;;;;;;;;23.30;66.00;;;;;;5053567;28;20477;-75
2022/11/02 01:16:33;;;;;;;;;;;23.50;64.40;;;;;;5052476;28;19935;-74
2022/11/02 01:19:00;;;;;;;;;;;23.40;62.80;;;;;;5053497;28;19914;-74
2022/11/02 01:21:26;;;;;;;;;;;23.40;65.60;;;;;;5051854;28;20544;-74
2022/11/02 01:23:54;;;;;;;;;;;23.40;64.20;;;;;;5053005;28;19913;-70
2022/11/02 01:26:21;;;;;;;;;;;23.60;64.10;;;;;;5057041;28;19929;-73
2022/11/02 01:28:48;;;;;;;;;;;23.70;63.20;;;;;;5073355;28;19909;-74
2022/11/02 01:31:14;;;;;;;;;;;23.80;62.70;;;;;;5066304;28;19913;-74
2022/11/02 01:33:44;;;;;;;;;;;24.10;65.20;;;;;;5053424;28;20371;-74
2022/11/02 01:36:12;;;;;;;;;;;24.30;65.90;;;;;;5056616;28;19916;-76
2022/11/02 01:38:38;;;;;;;;;;;24.40;65.30;;;;;;5049843;28;19920;-74
2022/11/02 01:41:05;;;;;;;;;;;24.40;64.20;;;;;;5052421;28;19920;-72
2022/11/02 01:43:33;;;;;;;;;;;24.60;67.50;;;;;;5053212;28;20003;-74
2022/11/02 01:46:00;;;;;;;;;;;24.60;63.30;;;;;;5051990;28;20814;-76
2022/11/02 01:48:30;;;;;;;;;;;24.90;65.10;;;;;;5053111;28;19913;-74
2022/11/02 01:50:57;;;;;;;;;;;24.80;64.70;;;;;;5052146;28;19920;-73
2022/11/02 01:53:24;;;;;;;;;;;25.00;63.10;;;;;;5052875;28;20398;-74
2022/11/02 01:55:51;;;;;;;;;;;25.10;64.30;;;;;;5051889;28;19913;-75
2022/11/02 01:58:18;;;;;;;;;;;24.30;61.50;;;;;;5052702;28;19935;-76
2022/11/02 02:00:45;;;;;;;;;;;24.10;63.60;;;;;;5050852;28;20410;-76
2022/11/02 02:03:17;;;;;;;;;;;24.30;62.70;;;;;;5052392;28;20686;-76
2022/11/02 02:05:46;;;;;;;;;;;24.70;65.70;;;;;;5051845;28;19916;-76
2022/11/02 02:08:13;;;;;;;;;;;24.90;65.60;;;;;;5044923;28;19913;-74
2022/11/02 02:10:40;;;;;;;;;;;24.80;62.90;;;;;;5033780;28;20378;-74
2022/11/02 02:13:07;;;;;;;;;;;24.80;62.80;;;;;;5050561;28;19916;-76
2022/11/02 02:15:43;;;;;;;;;;;24.90;62.60;;;;;;5051805;28;20268;-72
2022/11/02 02:18:18;;;;;;;;;;;24.80;62.90;;;;;;5047079;28;19916;-73
2022/11/02 02:21:08;;;;;;;;;;;24.70;63.00;;;;;;5051095;28;20323;-75
2022/11/02 02:23:53;;;;;;;;;;;24.60;64.20;;;;;;5041960;28;19913;-75
2022/11/02 02:26:38;;;;;;;;;;;24.70;64.50;;;;;;5038740;28;19925;-75
2022/11/02 02:29:05;;;;;;;;;;;24.30;63.20;;;;;;5052326;28;19915;-73
2022/11/02 02:31:36;;;;;;;;;;;24.10;62.80;;;;;;5051950;28;19913;-74
2022/11/02 02:34:21;;;;;;;;;;;24.40;64.80;;;;;;5051013;28;19931;-76
2022/11/02 02:37:10;;;;;;;;;;;24.80;64.20;;;;;;5044561;28;19919;-74
2022/11/02 02:39:37;;;;;;;;;;;25.00;62.80;;;;;;5041119;28;20003;-74
2022/11/02 02:42:21;;;;;;;;;;;24.20;62.60;;;;;;5055336;28;19909;-76
2022/11/02 02:44:57;;;;;;;;;;;24.10;63.70;;;;;;5052372;28;20344;-77
2022/11/02 02:47:27;;;;;;;;;;;24.30;65.60;;;;;;5037729;28;19940;-75
2022/11/02 02:49:55;;;;;;;;;;;24.70;65.00;;;;;;5043446;28;19917;-74
2022/11/02 02:52:23;;;;;;;;;;;25.00;65.10;;;;;;5045232;28;19913;-75
2022/11/02 02:54:51;;;;;;;;;;;25.20;62.10;;;;;;5050996;28;20015;-74
2022/11/02 02:57:20;;;;;;;;;;;25.20;63.10;;;;;;5050186;28;20513;-74
2022/11/02 02:59:47;;;;;;;;;;;25.10;63.70;;;;;;5050907;28;20076;-75
2022/11/02 03:02:21;;;;;;;;;;;25.10;64.20;;;;;;5033076;28;20007;-75
2022/11/02 03:04:48;;;;;;;;;;;25.20;62.60;;;;;;5049339;28;19913;-75
2022/11/02 03:07:19;;;;;;;;;;;25.30;63.10;;;;;;5047748;28;19919;-75
2022/11/02 03:10:04;;;;;;;;;;;25.10;61.30;;;;;;5050110;28;19919;-72
2022/11/02 03:12:54;;;;;;;;;;;25.00;63.50;;;;;;5050810;28;19920;-73
2022/11/02 03:15:35;;;;;;;;;;;24.80;62.50;;;;;;5050842;28;20358;-77
2022/11/02 03:18:31;;;;;;;;;;;24.50;61.20;;;;;;5050355;28;20006;-72
2022/11/02 03:21:06;;;;;;;;;;;23.90;61.60;;;;;;5043333;28;20034;-73
2022/11/02 03:23:33;;;;;;;;;;;23.80;62.90;;;;;;5051753;28;20378;-78
2022/11/02 03:26:05;;;;;;;;;;;23.80;61.90;;;;;;5050383;28;19920;-76
2022/11/02 03:28:50;;;;;;;;;;;24.00;62.60;;;;;;5051313;28;19988;-76
2022/11/02 03:31:37;;;;;;;;;;;24.10;62.80;;;;;;5051189;28;19919;-76
2022/11/02 03:34:16;;;;;;;;;;;24.20;64.30;;;;;;5054705;28;20355;-75
2022/11/02 03:36:45;;;;;;;;;;;24.30;63.90;;;;;;5054747;28;19982;-76
2022/11/02 03:39:14;;;;;;;;;;;24.30;61.80;;;;;;5055582;28;19909;-75
2022/11/02 03:41:43;;;;;;;;;;;24.10;61.80;;;;;;5047395;28;19920;-74
2022/11/02 03:44:19;;;;;;;;;;;24.20;63.10;;;;;;5037500;28;19921;-76
2022/11/02 03:46:47;;;;;;;;;;;24.20;63.80;;;;;;5054341;28;19913;-76
2022/11/02 03:49:16;;;;;;;;;;;24.20;63.40;;;;;;5055227;28;19935;-77
2022/11/02 03:51:44;;;;;;;;;;;24.10;61.90;;;;;;5046796;28;19920;-75
2022/11/02 03:54:17;;;;;;;;;;;24.20;63.10;;;;;;5047731;28;20000;-76
2022/11/02 03:56:46;;;;;;;;;;;24.20;61.50;;;;;;5054331;28;20657;-76
2022/11/02 03:59:12;;;;;;;;;;;24.20;62.60;;;;;;5055135;28;20351;-75
2022/11/02 04:01:41;;;;;;;;;;;24.00;61.80;;;;;;5041270;28;20446;-76
2022/11/02 04:04:07;;;;;;;;;;;24.00;62.60;;;;;;5042361;28;20364;-75
2022/11/02 04:06:34;;;;;;;;;;;23.70;61.60;;;;;;5047814;28;20276;-75
2022/11/02 04:09:01;;;;;;;;;;;23.50;63.10;;;;;;5054350;28;20050;-75
2022/11/02 04:19:44;;;;;;;;;;;23.80;64.10;;;;;;5054903;28;19939;-75
2022/11/02 04:27:40;;;;;;;;;;;23.80;64.20;;;;;;5053249;28;19929;-78
2022/11/02 04:30:07;;;;;;;;;;;23.70;64.00;;;;;;5054137;28;19963;-76
2022/11/02 04:35:22;;;;;;;;;;;23.60;64.80;;;;;;5054638;28;20286;-74
2022/11/02 04:40:33;;;;;;;;;;;23.30;63.90;;;;;;5034670;28;20366;-74
2022/11/02 04:42:59;;;;;;;;;;;23.20;64.70;;;;;;5053346;28;20381;-77
2022/11/02 04:45:26;;;;;;;;;;;23.30;64.50;;;;;;5053440;28;19908;-75
2022/11/02 04:47:58;;;;;;;;;;;23.30;64.90;;;;;;5052245;28;19917;-75
2022/11/02 04:50:25;;;;;;;;;;;22.90;63.90;;;;;;5053506;28;19919;-77
2022/11/02 04:52:55;;;;;;;;;;;22.30;65.20;;;;;;5053208;28;19913;-74
2022/11/02 04:55:22;;;;;;;;;;;22.20;67.20;;;;;;5054085;28;20030;-75
2022/11/02 04:57:48;;;;;;;;;;;22.10;65.90;;;;;;5052911;28;19939;-75
2022/11/02 05:00:15;;;;;;;;;;;22.00;67.20;;;;;;5053806;28;19908;-74
2022/11/02 05:02:42;;;;;;;;;;;22.00;69.40;;;;;;5052246;28;19923;-75
2022/11/02 05:05:11;;;;;;;;;;;22.30;70.00;;;;;;5052772;28;19917;-77
2022/11/02 05:07:38;;;;;;;;;;;22.40;68.40;;;;;;5050139;28;20331;-77
2022/11/02 05:10:04;;;;;;;;;;;22.10;68.70;;;;;;5053551;28;19909;-75
2022/11/02 05:12:31;;;;;;;;;;;22.00;65.40;;;;;;5051468;28;20359;-77
2022/11/02 05:14:58;;;;;;;;;;;21.80;65.00;;;;;;5053581;28;19918;-76
2022/11/02 05:17:24;;;;;;;;;;;21.70;65.80;;;;;;5052661;28;19951;-76
2022/11/02 05:19:51;;;;;;;;;;;21.60;65.40;;;;;;5035145;28;19908;-75
2022/11/02 05:22:20;;;;;;;;;;;21.50;65.60;;;;;;5050343;28;20378;-76
2022/11/02 05:24:46;;;;;;;;;;;21.60;65.10;;;;;;5053642;28;19917;-76
2022/11/02 05:27:13;;;;;;;;;;;21.50;65.90;;;;;;5040694;28;19940;-75
2022/11/02 05:29:40;;;;;;;;;;;21.50;66.90;;;;;;5032388;28;19909;-76
2022/11/02 05:32:06;;;;;;;;;;;21.50;66.10;;;;;;5047288;28;19913;-75
2022/11/02 05:34:33;;;;;;;;;;;21.30;65.20;;;;;;5050416;28;20398;-77
2022/11/02 05:37:00;;;;;;;;;;;21.30;65.30;;;;;;5050828;28;19917;-76
2022/11/02 05:39:26;;;;;;;;;;;21.10;64.50;;;;;;5050455;28;19913;-75
2022/11/02 05:41:53;;;;;;;;;;;21.10;65.00;;;;;;5050640;28;19963;-75
2022/11/02 05:44:20;;;;;;;;;;;21.00;65.50;;;;;;5051426;28;19916;-78
2022/11/02 05:46:46;;;;;;;;;;;20.90;66.10;;;;;;5050943;28;20364;-76
2022/11/02 05:49:13;;;;;;;;;;;21.00;67.30;;;;;;5052616;28;20391;-77
2022/11/02 05:51:40;;;;;;;;;;;21.00;66.00;;;;;;5052233;28;19913;-75
2022/11/02 05:54:06;;;;;;;;;;;21.00;66.20;;;;;;5051699;28;19963;-77
2022/11/02 05:56:34;;;;;;;;;;;20.90;67.50;;;;;;5051792;28;19916;-77
2022/11/02 05:59:00;;;;;;;;;;;20.90;66.90;;;;;;5052887;28;20004;-75
2022/11/02 06:01:27;;;;;;;;;;;20.90;67.20;;;;;;5051705;28;19974;-76
2022/11/02 06:03:54;;;;;;;;;;;20.90;67.80;;;;;;5052790;28;19908;-76
2022/11/02 06:06:20;;;;;;;;;;;21.00;67.70;;;;;;5052005;28;19919;-76
2022/11/02 06:08:47;;;;;;;;;;;21.00;67.60;;;;;;5052022;28;19935;-77
2022/11/02 06:11:14;;;;;;;;;;;21.00;68.30;;;;;;5051707;28;19912;-77
2022/11/02 06:13:41;;;;;;;;;;;21.10;67.90;;;;;;5047548;28;19913;-78
2022/11/02 06:16:10;;;;;;;;;;;20.90;66.30;;;;;;5050613;28;19963;-75
2022/11/02 06:18:37;;;;;;;;;;;20.70;67.60;;;;;;5052111;28;19913;-75
2022/11/02 06:21:04;;;;;;;;;;;20.40;67.00;;;;;;5051477;28;19920;-74
2022/11/02 06:23:31;;;;;;;;;;;20.00;67.30;;;;;;5052511;28;19956;-73
2022/11/02 06:25:58;;;;;;;;;;;19.60;67.10;;;;;;5049315;28;19924;-74
2022/11/02 06:28:25;;;;;;;;;;;19.40;67.80;;;;;;5038587;28;20346;-75
2022/11/02 06:30:52;;;;;;;;;;;19.50;68.50;;;;;;5052212;28;19954;-70
2022/11/02 06:33:22;;;;;;;;;;;19.60;67.80;;;;;;5053451;28;20214;-74
2022/11/02 06:35:53;;;;;;;;;;;19.60;67.80;;;;;;5051097;28;20019;-73
2022/11/02 06:38:19;;;;;;;;;;;19.80;68.00;;;;;;5032605;28;19928;-77
2022/11/02 06:41:05;;;;;;;;;;;19.80;67.40;;;;;;5038482;28;19913;-77
2022/11/02 06:43:33;;;;;;;;;;;19.90;66.30;;;;;;5039954;28;20348;-70
2022/11/02 06:45:59;;;;;;;;;;;19.90;66.80;;;;;;5048796;28;19971;-72
2022/11/02 06:48:27;;;;;;;;;;;19.80;66.90;;;;;;5049031;28;19952;-77
2022/11/02 06:50:53;;;;;;;;;;;19.80;67.60;;;;;;5050608;28;20018;-77
2022/11/02 06:53:20;;;;;;;;;;;19.60;68.60;;;;;;5032278;28;20008;-74
2022/11/02 06:55:56;;;;;;;;;;;19.40;69.00;;;;;;5046790;28;19921;-72
2022/11/02 06:58:23;;;;;;;;;;;19.30;69.80;;;;;;5032277;28;20355;-77
2022/11/02 07:00:55;;;;;;;;;;;19.20;70.40;;;;;;5033704;28;19917;-76
2022/11/02 07:03:22;;;;;;;;;;;19.10;71.40;;;;;;5052268;28;19908;-70
2022/11/02 07:05:50;;;;;;;;;;;19.10;71.20;;;;;;5051591;28;19913;-75
2022/11/02 07:08:17;;;;;;;;;;;18.90;71.20;;;;;;5054951;28;19913;-75
2022/11/02 07:10:44;;;;;;;;;;;18.80;72.00;;;;;;5054764;28;19920;-72
2022/11/02 07:13:11;;;;;;;;;;;18.70;72.50;;;;;;5036046;28;20316;-70
2022/11/02 07:15:38;;;;;;;;;;;18.60;72.60;;;;;;5035837;28;19917;-74
2022/11/02 07:18:05;;;;;;;;;;;18.50;72.50;;;;;;5050123;28;19916;-75
2022/11/02 07:20:32;;;;;;;;;;;18.30;72.30;;;;;;5055904;28;19917;-73
2022/11/02 07:22:59;;;;;;;;;;;18.20;72.80;;;;;;5055929;28;20423;-75
2022/11/02 07:25:31;;;;;;;;;;;18.10;73.60;;;;;;5055570;28;20402;-75
2022/11/02 07:27:59;;;;;;;;;;;17.90;72.00;;;;;;5037899;28;19917;-71
2022/11/02 07:30:26;;;;;;;;;;;17.80;72.30;;;;;;5055745;28;20064;-75
2022/11/02 07:32:53;;;;;;;;;;;17.70;72.70;;;;;;5058214;28;20383;-73
2022/11/02 07:35:19;;;;;;;;;;;17.60;72.80;;;;;;5055574;28;19983;-75
2022/11/02 07:37:54;;;;;;;;;;;17.40;72.80;;;;;;5053598;28;19920;-76
2022/11/02 07:40:21;;;;;;;;;;;17.30;73.10;;;;;;5055591;28;19917;-78
2022/11/02 07:42:47;;;;;;;;;;;17.20;73.90;;;;;;5038195;28;19909;-78
2022/11/02 07:45:14;;;;;;;;;;;17.00;74.20;;;;;;5046529;28;20275;-75
2022/11/02 07:47:44;;;;;;;;;;;16.90;73.50;;;;;;5038926;28;19916;-77
2022/11/02 07:50:12;;;;;;;;;;;16.90;73.10;;;;;;5035439;28;19920;-74
2022/11/02 07:52:49;;;;;;;;;;;16.80;73.00;;;;;;5051949;28;19916;-77
2022/11/02 07:55:17;;;;;;;;;;;16.60;73.20;;;;;;5055038;28;20279;-75
2022/11/02 07:57:52;;;;;;;;;;;16.60;73.60;;;;;;5038211;28;19913;-76
2022/11/02 08:00:18;;;;;;;;;;;16.40;74.70;;;;;;5038726;28;19963;-71
2022/11/02 08:02:45;;;;;;;;;;;16.40;74.70;;;;;;5054263;28;19920;-76
2022/11/02 08:05:11;;;;;;;;;;;16.30;73.60;;;;;;5055091;28;19936;-76
2022/11/02 08:07:38;;;;;;;;;;;16.20;74.10;;;;;;5039139;28;19917;-73
2022/11/02 08:10:05;;;;;;;;;;;16.10;74.60;;;;;;5034808;28;20378;-73
2022/11/02 08:12:32;;;;;;;;;;;16.00;75.00;;;;;;5044604;28;19917;-75
2022/11/02 08:14:58;;;;;;;;;;;15.90;75.10;;;;;;5052691;28;19925;-74
2022/11/02 08:17:25;;;;;;;;;;;15.80;75.20;;;;;;5039920;28;19996;-76
2022/11/02 08:19:52;;;;;;;;;;;15.70;75.50;;;;;;5038344;28;19915;-76
2022/11/02 08:22:18;;;;;;;;;;;15.60;75.90;;;;;;5041343;28;20012;-74
2022/11/02 08:24:45;;;;;;;;;;;15.50;76.40;;;;;;5034792;28;19913;-75
2022/11/02 08:27:12;;;;;;;;;;;15.50;76.80;;;;;;5049213;28;20375;-75
2022/11/02 08:29:38;;;;;;;;;;;15.40;77.00;;;;;;5053103;28;19913;-73
2022/11/02 08:32:05;;;;;;;;;;;15.40;76.70;;;;;;5056283;28;19970;-72
2022/11/02 08:34:32;;;;;;;;;;;15.30;76.40;;;;;;5053605;28;19960;-76
2022/11/02 08:36:58;;;;;;;;;;;15.30;76.50;;;;;;5043795;28;19913;-77
2022/11/02 08:39:25;;;;;;;;;;;15.20;76.70;;;;;;5034742;28;19966;-75
2022/11/02 08:41:52;;;;;;;;;;;15.10;76.90;;;;;;5044435;28;19912;-76
2022/11/02 08:44:18;;;;;;;;;;;15.10;76.40;;;;;;5054229;28;19916;-74
2022/11/02 08:46:45;;;;;;;;;;;15.10;76.60;;;;;;5053342;28;20025;-76
2022/11/02 08:49:12;;;;;;;;;;;15.00;76.70;;;;;;5053377;28;19958;-74
2022/11/02 08:51:38;;;;;;;;;;;15.00;77.00;;;;;;5046352;28;19920;-76
2022/11/02 08:54:05;;;;;;;;;;;14.90;77.10;;;;;;5036864;28;19920;-76
2022/11/02 08:56:31;;;;;;;;;;;14.90;77.10;;;;;;5053154;28;19921;-72
2022/11/02 08:58:58;;;;;;;;;;;14.80;77.70;;;;;;5054125;28;20363;-78
2022/11/02 09:01:25;;;;;;;;;;;14.80;77.30;;;;;;5053458;28;19923;-77
2022/11/02 09:03:51;;;;;;;;;;;14.80;77.20;;;;;;5052944;28;20006;-78
2022/11/02 09:06:18;;;;;;;;;;;14.70;76.90;;;;;;5052509;28;20324;-72
2022/11/02 09:08:45;;;;;;;;;;;14.70;77.20;;;;;;5053344;28;20351;-75
2022/11/02 09:11:11;;;;;;;;;;;14.60;77.70;;;;;;5049019;28;19917;-75
2022/11/02 09:13:38;;;;;;;;;;;14.60;77.90;;;;;;5048715;28;19913;-75
2022/11/02 09:16:05;;;;;;;;;;;14.50;78.00;;;;;;5050541;28;19917;-77
2022/11/02 09:18:32;;;;;;;;;;;14.50;78.20;;;;;;5033981;28;20012;-78
2022/11/02 09:21:02;;;;;;;;;;;14.40;78.50;;;;;;5047647;28;19920;-75
2022/11/02 09:23:29;;;;;;;;;;;14.40;78.70;;;;;;5053200;28;19920;-76
2022/11/02 09:25:56;;;;;;;;;;;14.40;79.00;;;;;;5051846;28;20322;-77
2022/11/02 09:28:23;;;;;;;;;;;14.20;79.20;;;;;;5053034;28;19960;-74
2022/11/02 09:30:50;;;;;;;;;;;14.20;79.30;;;;;;5051883;28;19925;-74
2022/11/02 09:33:16;;;;;;;;;;;14.10;79.70;;;;;;5055665;28;19999;-78
2022/11/02 09:35:44;;;;;;;;;;;14.10;80.10;;;;;;5052450;28;19920;-77
2022/11/02 09:38:11;;;;;;;;;;;14.00;80.10;;;;;;5052436;28;19909;-72
2022/11/02 09:40:44;;;;;;;;;;;14.00;80.60;;;;;;5052501;28;19920;-73
2022/11/02 09:43:18;;;;;;;;;;;13.90;80.40;;;;;;5032825;28;19913;-75
2022/11/02 09:45:51;;;;;;;;;;;13.90;80.60;;;;;;5033410;28;19909;-70
2022/11/02 09:48:20;;;;;;;;;;;13.80;80.80;;;;;;5052234;28;20437;-74
2022/11/02 09:51:07;;;;;;;;;;;13.80;81.90;;;;;;5050744;28;20260;-76
2022/11/02 09:53:52;;;;;;;;;;;13.70;81.50;;;;;;5051649;28;19920;-76
2022/11/02 09:56:19;;;;;;;;;;;13.70;82.00;;;;;;5038160;28;20303;-76
2022/11/02 09:58:47;;;;;;;;;;;13.60;82.60;;;;;;5052356;28;19909;-74
2022/11/02 10:01:28;;;;;;;;;;;13.60;82.40;;;;;;5047691;28;19917;-78
2022/11/02 10:04:13;;;;;;;;;;;13.70;82.20;;;;;;5032200;28;19913;-76
2022/11/02 10:06:44;;;;;;;;;;;13.60;82.30;;;;;;5040668;28;19934;-74
2022/11/02 10:09:21;;;;;;;;;;;13.70;81.90;;;;;;5051665;28;19986;-77
2022/11/02 10:12:02;;;;;;;;;;;13.60;82.00;;;;;;5050966;28;19936;-74
2022/11/02 10:14:30;;;;;;;;;;;13.70;82.70;;;;;;5047130;28;19917;-76
2022/11/02 10:17:18;;;;;;;;;;;13.60;82.30;;;;;;5042850;28;19912;-72
2022/11/02 10:19:49;;;;;;;;;;;13.60;82.90;;;;;;5052155;28;19955;-76
2022/11/02 10:22:15;;;;;;;;;;;13.50;83.10;;;;;;5051119;28;19920;-78
2022/11/02 10:24:46;;;;;;;;;;;13.40;84.40;;;;;;5048382;28;19966;-73
2022/11/02 10:27:19;;;;;;;;;;;13.40;84.70;;;;;;5047684;28;20348;-73
2022/11/02 10:29:54;;;;;;;;;;;13.30;84.30;;;;;;5054531;28;19913;-74
2022/11/02 10:32:21;;;;;;;;;;;13.30;84.30;;;;;;5045274;28;19917;-74
2022/11/02 10:34:47;;;;;;;;;;;13.30;84.50;;;;;;5050671;28;19932;-74
2022/11/02 10:37:17;;;;;;;;;;;13.30;84.20;;;;;;5050795;28;19917;-73
2022/11/02 10:39:43;;;;;;;;;;;13.20;84.20;;;;;;5051921;28;19916;-78
2022/11/02 10:42:20;;;;;;;;;;;13.20;84.40;;;;;;5037810;28;19936;-76
2022/11/02 10:44:58;;;;;;;;;;;13.20;84.10;;;;;;5034104;28;19991;-78
2022/11/02 10:47:30;;;;;;;;;;;13.20;84.20;;;;;;5037697;28;20419;-79
2022/11/02 10:50:15;;;;;;;;;;;13.20;84.10;;;;;;5031969;28;19971;-75
2022/11/02 10:52:43;;;;;;;;;;;13.20;84.60;;;;;;5048768;28;20375;-77
2022/11/02 10:55:19;;;;;;;;;;;13.20;84.50;;;;;;5051077;28;19997;-76
2022/11/02 10:57:46;;;;;;;;;;;13.20;84.90;;;;;;5037672;28;19919;-72
2022/11/02 11:00:23;;;;;;;;;;;13.20;84.70;;;;;;5049832;28;19924;-76
2022/11/02 11:03:06;;;;;;;;;;;13.20;84.30;;;;;;5043489;28;20382;-76
2022/11/02 11:05:35;;;;;;;;;;;13.20;84.40;;;;;;5050976;28;20434;-75
2022/11/02 11:08:02;;;;;;;;;;;13.20;84.10;;;;;;5050350;28;20333;-79
2022/11/02 11:10:31;;;;;;;;;;;13.20;83.70;;;;;;5050687;28;19923;-76
2022/11/02 11:12:57;;;;;;;;;;;13.20;84.30;;;;;;5051034;28;20257;-72
2022/11/02 11:15:26;;;;;;;;;;;13.20;84.30;;;;;;5051441;28;19971;-74
2022/11/02 11:17:54;;;;;;;;;;;13.20;84.40;;;;;;5049809;28;20299;-74
2022/11/02 11:20:30;;;;;;;;;;;13.10;84.50;;;;;;5051312;28;19908;-70
2022/11/02 11:23:14;;;;;;;;;;;13.10;84.40;;;;;;5050478;28;19917;-76
2022/11/02 11:25:41;;;;;;;;;;;13.00;84.90;;;;;;5049872;28;19928;-73
2022/11/02 11:28:25;;;;;;;;;;;12.90;84.70;;;;;;5032877;28;20438;-74
2022/11/02 11:31:03;;;;;;;;;;;12.90;85.10;;;;;;5050366;28;19920;-71
2022/11/02 11:33:31;;;;;;;;;;;12.80;85.60;;;;;;5051154;28;20402;-74
2022/11/02 11:35:58;;;;;;;;;;;12.80;85.40;;;;;;5050688;28;20397;-78
2022/11/02 11:38:26;;;;;;;;;;;12.80;85.70;;;;;;5050480;28;19917;-78
2022/11/02 11:40:57;;;;;;;;;;;12.70;85.70;;;;;;5050138;28;21491;-72
2022/11/02 11:43:26;;;;;;;;;;;12.80;85.50;;;;;;5050805;28;20062;-78
2022/11/02 11:45:58;;;;;;;;;;;12.70;85.80;;;;;;5047963;28;19924;-74
2022/11/02 11:48:43;;;;;;;;;;;12.70;86.00;;;;;;5050089;28;19920;-77
2022/11/02 11:51:25;;;;;;;;;;;12.70;85.90;;;;;;5046117;28;19913;-71
2022/11/02 11:54:10;;;;;;;;;;;12.70;85.90;;;;;;5045394;28;19913;-76
2022/11/02 11:56:36;;;;;;;;;;;12.70;86.20;;;;;;5036483;28;19920;-73
2022/11/02 11:59:03;;;;;;;;;;;12.70;86.50;;;;;;5055429;28;19913;-76
2022/11/02 12:01:38;;;;;;;;;;;12.60;87.40;;;;;;5056133;28;19960;-78
2022/11/02 12:04:05;;;;;;;;;;;12.50;88.50;;;;;;5043413;28;19964;-73
2022/11/02 12:06:42;;;;;;;;;;;12.40;89.40;;;;;;5043233;28;19966;-77
2022/11/02 12:09:26;;;;;;;;;;;12.40;89.30;;;;;;5054307;28;20039;-71
2022/11/02 12:11:52;;;;;;;;;;;12.40;88.80;;;;;;5045143;28;19948;-76
2022/11/02 12:14:19;;;;;;;;;;;12.30;88.60;;;;;;5047532;28;19964;-73
2022/11/02 12:16:50;;;;;;;;;;;12.30;88.50;;;;;;5054514;28;19908;-76
2022/11/02 12:19:22;;;;;;;;;;;12.30;89.00;;;;;;5054911;28;19959;-77
2022/11/02 12:22:18;;;;;;;;;;;12.20;89.80;;;;;;5053928;28;19917;-78
2022/11/02 12:24:52;;;;;;;;;;;12.20;89.60;;;;;;4983792;28;19921;-78
2022/11/02 12:27:21;;;;;;;;;;;12.00;90.40;;;;;;5050920;28;19944;-78
2022/11/02 12:29:48;;;;;;;;;;;12.00;90.30;;;;;;5053017;28;19920;-78
2022/11/02 12:32:26;;;;;;;;;;;11.90;90.50;;;;;;5053674;28;20326;-74
2022/11/02 12:34:53;;;;;;;;;;;11.80;90.60;;;;;;5054059;28;19947;-74
2022/11/02 12:37:31;;;;;;;;;;;11.70;91.70;;;;;;5041058;28;19917;-74
2022/11/02 12:40:00;;;;;;;;;;;11.60;91.00;;;;;;5034421;28;19996;-78
2022/11/02 12:42:36;;;;;;;;;;;11.60;91.20;;;;;;5049354;28;20256;-78
2022/11/02 12:45:16;;;;;;;;;;;11.50;91.20;;;;;;5053763;28;19909;-76
2022/11/02 12:47:57;;;;;;;;;;;11.50;91.50;;;;;;5053076;28;19944;-78
2022/11/02 12:50:47;;;;;;;;;;;11.40;91.50;;;;;;5033974;28;20447;-78
2022/11/02 12:53:32;;;;;;;;;;;11.30;91.70;;;;;;4987765;28;19921;-76
2022/11/02 12:56:00;;;;;;;;;;;11.30;92.10;;;;;;5050155;28;19967;-77
2022/11/02 12:58:32;;;;;;;;;;;11.30;92.20;;;;;;5053094;28;19983;-79
2022/11/02 13:01:09;;;;;;;;;;;11.30;92.10;;;;;;5052516;28;20286;-78
2022/11/02 13:03:51;;;;;;;;;;;11.30;92.20;;;;;;5051928;28;19986;-77
2022/11/02 13:06:20;;;;;;;;;;;11.20;92.40;;;;;;5050650;28;19913;-76
2022/11/02 13:08:51;;;;;;;;;;;11.20;92.80;;;;;;5052294;28;19915;-77
2022/11/02 13:11:40;;;;;;;;;;;11.10;92.70;;;;;;5047129;28;19920;-77
2022/11/02 13:14:12;;;;;;;;;;;11.10;93.00;;;;;;5003633;28;19920;-77
2022/11/02 13:16:43;;;;;;;;;;;11.10;93.30;;;;;;5036251;28;20371;-79
2022/11/02 13:19:19;;;;;;;;;;;11.00;93.40;;;;;;5046669;28;19916;-78
2022/11/02 13:21:49;;;;;;;;;;;11.00;93.30;;;;;;5042752;28;19959;-77
2022/11/02 13:24:18;;;;;;;;;;;10.90;93.40;;;;;;5053394;28;19920;-78
2022/11/02 13:26:47;;;;;;;;;;;10.90;93.70;;;;;;5044323;28;19922;-76
2022/11/02 13:29:32;;;;;;;;;;;10.80;93.60;;;;;;5045933;28;19913;-79
2022/11/02 13:32:18;;;;;;;;;;;10.80;93.70;;;;;;5056108;28;19920;-77
2022/11/02 13:34:49;;;;;;;;;;;10.80;94.10;;;;;;5053125;28;20011;-78
2022/11/02 13:37:19;;;;;;;;;;;10.80;93.90;;;;;;5053062;28;19913;-78
2022/11/02 13:39:47;;;;;;;;;;;10.70;93.90;;;;;;5053226;28;19908;-75
2022/11/02 13:42:32;;;;;;;;;;;10.70;94.10;;;;;;5052399;28;19983;-76
2022/11/02 13:45:08;;;;;;;;;;;10.60;94.20;;;;;;5053413;28;19908;-76
2022/11/02 13:47:52;;;;;;;;;;;10.60;94.60;;;;;;5037703;28;19917;-77
2022/11/02 13:50:21;;;;;;;;;;;10.60;94.90;;;;;;5038281;28;19924;-77
2022/11/02 13:53:02;;;;;;;;;;;10.60;94.90;;;;;;5051865;28;20011;-74
2022/11/02 13:55:37;;;;;;;;;;;10.50;94.90;;;;;;5047131;28;19917;-77
2022/11/02 13:58:04;;;;;;;;;;;10.50;95.30;;;;;;5052729;28;20291;-77
2022/11/02 14:00:36;;;;;;;;;;;10.50;95.20;;;;;;5053135;28;19909;-77
2022/11/02 14:03:12;;;;;;;;;;;10.40;95.40;;;;;;5033808;28;19913;-77
2022/11/02 14:05:49;;;;;;;;;;;10.30;95.50;;;;;;5033512;28;19958;-75
2022/11/02 14:08:29;;;;;;;;;;;10.30;95.90;;;;;;5032909;28;19913;-76
2022/11/02 14:11:22;;;;;;;;;;;10.40;96.20;;;;;;5051127;28;19916;-76
2022/11/02 14:13:51;;;;;;;;;;;10.40;96.40;;;;;;5052287;28;19919;-75
2022/11/02 14:16:36;;;;;;;;;;;10.30;96.30;;;;;;5046747;28;19917;-78
2022/11/02 14:19:18;;;;;;;;;;;10.30;96.60;;;;;;5051334;28;20008;-76
2022/11/02 14:21:53;;;;;;;;;;;10.20;97.00;;;;;;5033799;28;20287;-69
2022/11/02 14:24:32;;;;;;;;;;;10.20;96.80;;;;;;5036516;28;19927;-76
2022/11/02 14:27:03;;;;;;;;;;;10.10;97.10;;;;;;5051321;28;20141;-77
2022/11/02 14:29:45;;;;;;;;;;;10.10;97.20;;;;;;5052649;28;19912;-78
2022/11/02 14:32:22;;;;;;;;;;;10.10;97.40;;;;;;5055566;28;19913;-78
2022/11/02 14:35:14;;;;;;;;;;;10.10;97.60;;;;;;5052367;28;20418;-70
2022/11/02 14:37:50;;;;;;;;;;;10.00;97.90;;;;;;5051819;28;19920;-73
2022/11/02 14:40:26;;;;;;;;;;;10.00;98.00;;;;;;5051962;28;20368;-74
2022/11/02 14:42:55;;;;;;;;;;;9.90;97.90;;;;;;5036886;28;20050;-70
2022/11/02 14:45:29;;;;;;;;;;;9.90;98.40;;;;;;5052326;28;20359;-70
2022/11/02 14:48:01;;;;;;;;;;;9.90;98.40;;;;;;5051197;28;20358;-72
2022/11/02 14:50:28;;;;;;;;;;;9.80;98.60;;;;;;5052368;28;20368;-76
2022/11/02 14:53:00;;;;;;;;;;;9.80;98.40;;;;;;5033791;28;20379;-75
2022/11/02 14:55:29;;;;;;;;;;;9.80;98.80;;;;;;5032263;28;20323;-72